createdAt,value
2024-01-16T00:00:53.985Z,7.82
2024-01-16T00:03:20.910Z,4.53
2024-01-16T00:05:47.798Z,7.45
2024-01-16T00:08:14.712Z,7.43
2024-01-16T00:10:41.907Z,5.05
2024-01-16T00:13:08.758Z,6.70
2024-01-16T00:15:36.594Z,4.15
2024-01-16T00:18:03.686Z,7.50
2024-01-16T00:20:30.648Z,6.60
2024-01-16T00:22:57.504Z,4.75
2024-01-16T00:25:24.419Z,6.40
2024-01-16T00:27:51.521Z,7.65
2024-01-16T00:30:18.452Z,5.78
2024-01-16T00:32:45.425Z,6.03
2024-01-16T00:35:12.480Z,6.82
2024-01-16T00:37:39.583Z,6.97
2024-01-16T00:40:06.773Z,6.68
2024-01-16T00:42:33.637Z,7.80
2024-01-16T00:45:00.479Z,6.07
2024-01-16T00:47:27.473Z,6.65
2024-01-16T00:49:54.369Z,5.68
2024-01-16T00:52:21.247Z,7.55
2024-01-16T00:54:48.039Z,8.40
2024-01-16T00:57:16.660Z,7.40
2024-01-16T00:59:43.586Z,7.50
2024-01-16T01:02:13.047Z,9.18
2024-01-16T01:04:40.133Z,6.53
2024-01-16T01:07:07.015Z,6.88
2024-01-16T01:09:33.978Z,7.68
2024-01-16T01:12:01.028Z,6.13
2024-01-16T01:14:30.478Z,6.20
2024-01-16T01:16:57.521Z,8.52
2024-01-16T01:19:25.035Z,7.38
2024-01-16T01:21:51.900Z,8.32
2024-01-16T01:24:18.768Z,5.68
2024-01-16T01:26:45.779Z,10.82
2024-01-16T01:29:12.756Z,7.47
2024-01-16T01:31:41.738Z,6.70
2024-01-16T01:34:09.156Z,6.63
2024-01-16T01:36:36.426Z,7.18
2024-01-16T01:39:04.277Z,7.47
2024-01-16T01:41:31.231Z,5.07
2024-01-16T01:43:58.036Z,4.47
2024-01-16T01:46:24.864Z,6.97
2024-01-16T01:48:51.894Z,7.13
2024-01-16T01:51:19.214Z,7.82
2024-01-16T01:53:46.878Z,10.60
2024-01-16T01:56:18.020Z,7.45
2024-01-16T01:58:46.851Z,6.63
2024-01-16T02:01:14.655Z,7.22
2024-01-16T02:03:47.683Z,6.88
2024-01-16T02:06:14.957Z,9.18
2024-01-16T02:08:42.036Z,9.07
2024-01-16T02:11:09.256Z,5.72
2024-01-16T02:13:36.469Z,8.82
2024-01-16T02:16:04.519Z,7.38
2024-01-16T02:18:31.442Z,9.43
2024-01-16T02:21:02.470Z,7.20
2024-01-16T02:23:29.427Z,7.22
2024-01-16T02:25:56.524Z,8.25
2024-01-16T02:28:23.450Z,8.88
2024-01-16T02:30:50.409Z,6.25
2024-01-16T02:33:17.521Z,8.65
2024-01-16T02:35:44.506Z,6.15
2024-01-16T02:38:11.460Z,8.70
2024-01-16T02:40:38.455Z,8.65
2024-01-16T02:43:05.300Z,7.03
2024-01-16T02:45:32.217Z,7.85
2024-01-16T02:47:59.201Z,6.18
2024-01-16T02:50:26.300Z,5.72
2024-01-16T02:52:53.180Z,6.57
2024-01-16T02:55:20.391Z,6.63
2024-01-16T02:57:47.219Z,4.50
2024-01-16T03:00:14.971Z,8.50
2024-01-16T03:02:42.041Z,7.22
2024-01-16T03:05:09.224Z,5.55
2024-01-16T03:07:36.288Z,7.47
2024-01-16T03:10:03.356Z,5.35
2024-01-16T03:12:30.239Z,6.03
2024-01-16T03:14:57.103Z,7.07
2024-01-16T03:17:23.989Z,6.43
2024-01-16T03:19:50.811Z,6.22
2024-01-16T03:22:17.619Z,6.50
2024-01-16T03:24:44.459Z,4.95
2024-01-16T03:27:11.248Z,3.88
2024-01-16T03:29:38.217Z,8.10
2024-01-16T03:32:05.473Z,4.78
2024-01-16T03:34:32.985Z,6.38
2024-01-16T03:36:59.876Z,4.03
2024-01-16T03:39:26.709Z,6.03
2024-01-16T03:41:53.735Z,3.90
2024-01-16T03:44:20.706Z,5.18
2024-01-16T03:46:47.832Z,5.53
2024-01-16T03:49:14.738Z,4.80
2024-01-16T03:51:45.647Z,5.30
2024-01-16T03:54:12.633Z,4.70
2024-01-16T03:56:39.520Z,5.57
2024-01-16T03:59:06.412Z,4.43
2024-01-16T04:01:33.981Z,4.88
2024-01-16T04:04:03.245Z,5.88
2024-01-16T04:06:31.096Z,5.15
2024-01-16T04:08:57.966Z,6.60
2024-01-16T04:11:24.941Z,6.55
2024-01-16T04:13:51.824Z,4.82
2024-01-16T04:16:18.695Z,3.83
2024-01-16T04:18:45.794Z,4.50
2024-01-16T04:21:12.826Z,3.95
2024-01-16T04:23:39.756Z,5.20
2024-01-16T04:26:06.681Z,3.35
2024-01-16T04:28:33.522Z,7.93
2024-01-16T04:31:01.453Z,4.75
2024-01-16T04:33:29.203Z,3.95
2024-01-16T04:35:56.616Z,3.60
2024-01-16T04:38:23.614Z,5.25
2024-01-16T04:40:50.806Z,5.93
2024-01-16T04:43:17.623Z,6.35
2024-01-16T04:45:44.541Z,3.53
2024-01-16T04:48:11.495Z,4.30
2024-01-16T04:50:38.503Z,5.53
2024-01-16T04:53:05.526Z,4.85
2024-01-16T04:55:32.372Z,6.07
2024-01-16T04:58:00.984Z,5.47
2024-01-16T05:00:28.372Z,5.70
2024-01-16T05:02:55.346Z,4.10
2024-01-16T05:05:22.403Z,4.38
2024-01-16T05:07:49.419Z,2.90
2024-01-16T05:10:16.295Z,4.38
2024-01-16T05:12:43.275Z,2.70
2024-01-16T05:15:12.397Z,5.47
2024-01-16T05:17:39.700Z,5.57
2024-01-16T05:20:07.058Z,3.20
2024-01-16T05:22:34.091Z,5.95
2024-01-16T05:25:01.793Z,5.38
2024-01-16T05:27:28.637Z,4.68
2024-01-16T05:29:56.204Z,6.63
2024-01-16T05:32:23.090Z,5.00
2024-01-16T05:34:49.929Z,4.30
2024-01-16T05:37:16.983Z,5.95
2024-01-16T05:39:46.900Z,5.70
2024-01-16T05:42:13.771Z,5.35
2024-01-16T05:44:40.645Z,6.40
2024-01-16T05:47:07.626Z,6.95
2024-01-16T05:49:34.757Z,4.25
2024-01-16T05:52:01.828Z,6.00
2024-01-16T05:54:28.833Z,5.22
2024-01-16T05:56:55.805Z,3.88
2024-01-16T05:59:22.731Z,8.32
2024-01-16T06:01:50.408Z,4.88
2024-01-16T06:04:17.416Z,9.85
2024-01-16T06:06:46.774Z,6.35
2024-01-16T06:09:15.520Z,5.90
2024-01-16T06:11:42.663Z,6.45
2024-01-16T06:14:10.489Z,4.90
2024-01-16T06:16:37.445Z,8.10
2024-01-16T06:19:04.570Z,5.15
2024-01-16T06:21:31.563Z,4.45
2024-01-16T06:23:58.432Z,6.78
2024-01-16T06:26:25.393Z,7.47
2024-01-16T06:28:52.231Z,6.97
2024-01-16T06:31:19.350Z,6.90
2024-01-16T06:33:46.517Z,4.43
2024-01-16T06:36:13.557Z,5.88
2024-01-16T06:38:41.291Z,6.07
2024-01-16T06:41:08.368Z,6.40
2024-01-16T06:43:35.497Z,6.38
2024-01-16T06:46:02.355Z,6.20
2024-01-16T06:48:29.427Z,4.47
2024-01-16T06:50:56.652Z,5.55
2024-01-16T06:53:23.777Z,5.32
2024-01-16T06:55:50.596Z,8.82
2024-01-16T06:58:17.430Z,4.38
2024-01-16T07:00:44.433Z,4.40
2024-01-16T07:03:11.436Z,3.83
2024-01-16T07:05:38.610Z,7.50
2024-01-16T07:08:05.509Z,8.82
2024-01-16T07:10:32.779Z,3.40
2024-01-16T07:12:59.856Z,4.05
2024-01-16T07:15:26.925Z,7.20
2024-01-16T07:17:53.857Z,5.78
2024-01-16T07:20:21.119Z,5.63
2024-01-16T07:22:48.105Z,3.50
2024-01-16T07:25:14.999Z,8.20
2024-01-16T07:27:43.688Z,7.03
2024-01-16T07:30:10.831Z,6.97
2024-01-16T07:32:37.884Z,7.13
2024-01-16T07:35:05.695Z,6.90
2024-01-16T07:37:32.528Z,7.57
2024-01-16T07:39:59.666Z,5.63
2024-01-16T07:42:27.300Z,7.75
2024-01-16T07:44:54.250Z,4.90
2024-01-16T07:47:21.164Z,8.63
2024-01-16T07:49:48.249Z,6.13
2024-01-16T07:52:15.173Z,7.28
2024-01-16T07:54:42.024Z,7.65
2024-01-16T07:57:08.881Z,8.05
2024-01-16T07:59:35.865Z,8.25
2024-01-16T08:02:02.735Z,5.85
2024-01-16T08:04:29.613Z,10.93
2024-01-16T08:06:56.582Z,7.03
2024-01-16T08:09:23.473Z,7.22
2024-01-16T08:11:50.401Z,7.18
2024-01-16T08:14:17.295Z,9.50
2024-01-16T08:16:44.240Z,11.77
2024-01-16T08:19:11.241Z,11.18
2024-01-16T08:21:38.111Z,7.80
2024-01-16T08:24:05.008Z,9.48
2024-01-16T08:26:31.959Z,6.13
2024-01-16T08:28:59.036Z,7.90
2024-01-16T08:31:25.857Z,11.73
2024-01-16T08:33:54.524Z,7.10
2024-01-16T08:36:21.621Z,7.72
2024-01-16T08:38:48.623Z,7.22
2024-01-16T08:41:15.536Z,8.98
2024-01-16T08:43:42.506Z,8.18
2024-01-16T08:46:09.357Z,6.45
2024-01-16T08:48:36.384Z,8.20
2024-01-16T08:51:06.540Z,7.85
2024-01-16T08:53:35.072Z,10.63
2024-01-16T08:56:01.949Z,7.68
2024-01-16T08:58:28.754Z,8.90
2024-01-16T09:00:55.595Z,5.70
2024-01-16T09:03:22.443Z,6.82
2024-01-16T09:05:49.420Z,10.20
2024-01-16T09:08:16.332Z,7.05
2024-01-16T09:10:43.184Z,7.78
2024-01-16T09:13:09.991Z,9.85
2024-01-16T09:15:36.904Z,8.40
2024-01-16T09:18:04.196Z,7.80
2024-01-16T09:20:31.242Z,9.25
2024-01-16T09:22:58.229Z,6.40
2024-01-16T09:25:26.122Z,7.65
2024-01-16T09:27:53.699Z,8.98
2024-01-16T09:30:22.813Z,5.22
2024-01-16T09:32:50.119Z,6.95
2024-01-16T09:35:17.036Z,5.35
2024-01-16T09:37:43.991Z,5.68
2024-01-16T09:40:11.364Z,5.53
2024-01-16T09:42:38.282Z,5.05
2024-01-16T09:45:05.422Z,6.18
2024-01-16T09:47:33.232Z,6.90
2024-01-16T09:50:04.323Z,9.00
2024-01-16T09:52:31.338Z,6.82
2024-01-16T09:54:58.184Z,6.35
2024-01-16T09:57:26.518Z,8.60
2024-01-16T09:59:53.565Z,12.73
2024-01-16T10:02:22.374Z,11.95
2024-01-16T10:04:49.356Z,12.43
2024-01-16T10:07:16.983Z,12.15
2024-01-16T10:09:44.506Z,13.20
2024-01-16T10:12:11.505Z,11.45
2024-01-16T10:14:39.978Z,8.73
2024-01-16T10:17:07.510Z,8.18
2024-01-16T10:19:43.352Z,10.05
2024-01-16T10:22:23.642Z,9.02
2024-01-16T10:25:04.095Z,9.43
2024-01-16T10:27:32.306Z,8.98
2024-01-16T10:29:59.675Z,8.18
2024-01-16T10:32:33.654Z,8.52
2024-01-16T10:35:12.848Z,7.70
2024-01-16T10:37:50.186Z,8.05
2024-01-16T10:40:17.417Z,12.82
2024-01-16T10:42:45.509Z,6.18
2024-01-16T10:45:18.280Z,8.82
2024-01-16T10:47:45.416Z,7.15
2024-01-16T10:50:12.411Z,5.25
2024-01-16T10:52:41.863Z,4.80
2024-01-16T10:55:10.743Z,7.03
2024-01-16T10:57:40.393Z,4.80
2024-01-16T11:00:09.730Z,5.82
2024-01-16T11:02:41.744Z,7.28
2024-01-16T11:05:09.478Z,7.40
2024-01-16T11:07:36.989Z,7.30
2024-01-16T11:10:04.277Z,6.47
2024-01-16T11:12:32.010Z,5.15
2024-01-16T11:15:02.384Z,7.80
2024-01-16T11:17:31.158Z,6.10
2024-01-16T11:20:10.434Z,7.78
2024-01-16T11:22:46.014Z,5.57
2024-01-16T11:25:14.391Z,5.65
2024-01-16T11:27:42.130Z,8.55
2024-01-16T11:30:10.410Z,10.20
2024-01-16T11:32:43.942Z,6.68
2024-01-16T11:35:12.705Z,7.82
2024-01-16T11:37:41.579Z,10.02
2024-01-16T11:40:23.833Z,7.47
2024-01-16T11:42:53.529Z,9.00
2024-01-16T11:45:30.203Z,8.65
2024-01-16T11:48:09.099Z,4.88
2024-01-16T11:50:36.025Z,9.70
2024-01-16T11:53:02.923Z,5.65
2024-01-16T11:55:32.164Z,6.05
2024-01-16T11:58:17.955Z,6.05
2024-01-16T12:00:47.060Z,5.10
2024-01-16T12:03:24.868Z,5.53
2024-01-16T12:05:58.287Z,4.25
2024-01-16T12:08:25.661Z,4.05
2024-01-16T12:10:52.499Z,5.07
2024-01-16T12:13:19.393Z,5.18
2024-01-16T12:15:47.333Z,6.70
2024-01-16T12:18:30.091Z,5.20
2024-01-16T12:21:08.914Z,4.82
2024-01-16T12:23:35.824Z,3.22
2024-01-16T12:26:04.751Z,4.25
2024-01-16T12:28:33.776Z,3.63
2024-01-16T12:31:02.646Z,3.85
2024-01-16T12:33:30.331Z,4.10
2024-01-16T12:36:04.669Z,4.32
2024-01-16T12:38:32.207Z,6.07
2024-01-16T12:40:59.506Z,6.05
2024-01-16T12:43:26.400Z,7.13
2024-01-16T12:45:59.341Z,5.53
2024-01-16T12:48:27.088Z,4.60
2024-01-16T12:51:04.752Z,4.53
2024-01-16T12:53:38.484Z,5.95
2024-01-16T12:56:05.712Z,5.38
2024-01-16T12:58:36.280Z,5.07
2024-01-16T13:01:31.812Z,2.78
2024-01-16T13:04:05.846Z,3.83
2024-01-16T13:06:35.668Z,5.25
2024-01-16T13:09:16.620Z,3.08
2024-01-16T13:11:49.260Z,6.03
2024-01-16T13:16:42.882Z,4.63
2024-01-16T13:19:12.209Z,7.53
2024-01-16T13:21:39.168Z,4.78
2024-01-16T13:24:06.276Z,3.22
2024-01-16T13:26:33.867Z,4.05
2024-01-16T13:29:01.314Z,9.05
2024-01-16T13:31:28.433Z,3.72
2024-01-16T13:33:58.068Z,5.18
2024-01-16T13:36:46.457Z,3.40
2024-01-16T13:39:14.511Z,6.53
2024-01-16T13:41:41.845Z,5.97
2024-01-16T13:44:08.815Z,3.95
2024-01-16T13:46:49.666Z,4.85
2024-01-16T13:49:22.718Z,3.60
2024-01-16T13:51:49.661Z,4.70
2024-01-16T13:54:16.874Z,3.88
2024-01-16T13:56:58.933Z,3.67
2024-01-16T13:59:31.380Z,5.20
2024-01-16T14:01:59.764Z,4.32
2024-01-16T14:04:26.908Z,3.08
2024-01-16T14:07:09.713Z,4.65
2024-01-16T14:09:39.876Z,4.40
2024-01-16T14:12:09.848Z,4.30
2024-01-16T14:14:37.202Z,4.28
2024-01-16T14:17:04.360Z,2.17
2024-01-16T14:19:32.330Z,3.65
2024-01-16T14:21:59.694Z,2.83
2024-01-16T14:24:26.895Z,2.60
2024-01-16T14:26:54.040Z,5.45
2024-01-16T14:29:21.055Z,4.32
2024-01-16T14:31:50.587Z,2.65
2024-01-16T14:34:19.653Z,3.65
2024-01-16T14:36:46.898Z,4.72
2024-01-16T14:39:23.317Z,4.43
2024-01-16T14:41:50.357Z,4.85
2024-01-16T14:44:17.337Z,6.38
2024-01-16T14:46:47.974Z,4.63
2024-01-16T14:49:17.484Z,4.30
2024-01-16T14:51:44.601Z,4.05
2024-01-16T14:54:11.547Z,3.33
2024-01-16T14:56:38.616Z,5.38
2024-01-16T14:59:05.651Z,4.25
2024-01-16T15:01:32.807Z,2.72
2024-01-16T15:04:00.836Z,4.78
2024-01-16T15:06:28.691Z,3.97
2024-01-16T15:08:56.184Z,3.05
2024-01-16T15:11:23.708Z,4.93
2024-01-16T15:13:51.128Z,5.25
2024-01-16T15:16:19.744Z,2.83
2024-01-16T15:18:47.448Z,3.28
2024-01-16T15:21:15.523Z,3.00
2024-01-16T15:23:42.517Z,3.20
2024-01-16T15:26:09.441Z,4.32
2024-01-16T15:28:36.395Z,3.53
2024-01-16T15:31:08.903Z,7.32
2024-01-16T15:33:36.979Z,4.28
2024-01-16T15:36:04.658Z,2.25
2024-01-16T15:38:32.100Z,2.72
2024-01-16T15:40:59.474Z,2.78
2024-01-16T15:43:26.432Z,3.38
2024-01-16T15:45:53.361Z,2.25
2024-01-16T15:48:20.378Z,3.90
2024-01-16T15:50:47.531Z,2.25
2024-01-16T15:53:17.345Z,3.45
2024-01-16T15:55:44.720Z,2.30
2024-01-16T15:58:11.787Z,4.65
2024-01-16T16:00:38.865Z,3.33
2024-01-16T16:03:06.728Z,3.08
2024-01-16T16:05:34.074Z,3.20
2024-01-16T16:08:01.068Z,4.53
2024-01-16T16:10:28.395Z,4.20
2024-01-16T16:12:55.677Z,3.15
2024-01-16T16:15:23.221Z,6.05
2024-01-16T16:17:50.911Z,5.43
2024-01-16T16:20:20.772Z,5.63
2024-01-16T16:22:48.588Z,4.00
2024-01-16T16:25:15.494Z,2.95
2024-01-16T16:27:42.705Z,3.28
2024-01-16T16:30:09.912Z,3.13
2024-01-16T16:32:37.235Z,1.95
2024-01-16T16:35:04.735Z,4.78
2024-01-16T16:37:31.622Z,3.83
2024-01-16T16:39:58.529Z,2.85
2024-01-16T16:42:28.365Z,3.08
2024-01-16T16:44:56.333Z,2.75
2024-01-16T16:47:23.390Z,3.85
2024-01-16T16:49:50.337Z,4.85
2024-01-16T16:52:17.798Z,2.78
2024-01-16T16:54:48.998Z,5.38
2024-01-16T16:57:15.895Z,6.65
2024-01-16T16:59:42.790Z,6.32
2024-01-16T17:02:09.729Z,6.03
2024-01-16T17:04:36.610Z,6.97
2024-01-16T17:07:03.834Z,7.13
2024-01-16T17:09:30.721Z,10.65
2024-01-16T17:11:57.742Z,7.15
2024-01-16T17:14:25.016Z,10.70
2024-01-16T17:16:52.131Z,8.13
2024-01-16T17:19:20.560Z,8.30
2024-01-16T17:21:47.582Z,9.32
2024-01-16T17:24:14.914Z,12.85
2024-01-16T17:26:43.027Z,11.35
2024-01-16T17:29:10.123Z,11.88
2024-01-16T17:31:38.121Z,12.90
2024-01-16T17:34:06.414Z,8.20
2024-01-16T17:36:33.432Z,9.07
2024-01-16T17:39:01.414Z,6.80
2024-01-16T17:41:30.851Z,7.38
2024-01-16T17:43:58.223Z,9.30
2024-01-16T17:46:25.145Z,9.02
2024-01-16T17:48:55.726Z,7.78
2024-01-16T17:51:23.109Z,11.27
2024-01-16T17:53:52.529Z,8.27
2024-01-16T17:56:19.403Z,8.52
2024-01-16T17:58:46.240Z,7.13
2024-01-16T18:01:13.382Z,12.23
2024-01-16T18:03:44.960Z,7.55
2024-01-16T18:06:21.842Z,8.20
2024-01-16T18:08:50.270Z,6.22
2024-01-16T18:11:17.240Z,8.05
2024-01-16T18:13:45.114Z,6.60
2024-01-16T18:16:13.077Z,9.30
2024-01-16T18:18:40.631Z,9.05
2024-01-16T18:21:07.879Z,6.90
2024-01-16T18:23:36.480Z,7.60
2024-01-16T18:26:05.697Z,11.27
2024-01-16T18:28:33.093Z,7.47
2024-01-16T18:31:00.620Z,9.52
2024-01-16T18:33:27.961Z,9.38
2024-01-16T18:35:59.181Z,8.52
2024-01-16T18:38:27.292Z,10.23
2024-01-16T18:40:54.309Z,7.88
2024-01-16T18:43:21.597Z,8.85
2024-01-16T18:45:48.441Z,7.85
2024-01-16T18:48:15.714Z,10.35
2024-01-16T18:50:43.472Z,12.38
2024-01-16T18:53:10.592Z,10.57
2024-01-16T18:55:37.844Z,11.48
2024-01-16T18:58:05.867Z,7.97
2024-01-16T19:00:32.908Z,8.52
2024-01-16T19:03:00.676Z,9.98
2024-01-16T19:05:27.703Z,7.35
2024-01-16T19:07:54.753Z,13.10
2024-01-16T19:10:21.780Z,8.10
2024-01-16T19:12:49.158Z,11.70
2024-01-16T19:15:20.907Z,9.30
2024-01-16T19:20:15.258Z,9.48
2024-01-16T19:22:42.832Z,9.00
2024-01-16T19:25:11.562Z,12.23
2024-01-16T19:27:40.224Z,8.10
2024-01-16T19:30:08.723Z,10.02
2024-01-16T19:32:36.181Z,9.63
2024-01-16T19:35:03.982Z,9.98
2024-01-16T19:37:30.897Z,10.57
2024-01-16T19:39:57.751Z,11.63
2024-01-16T19:42:25.788Z,12.15
2024-01-16T19:44:52.765Z,10.85
2024-01-16T19:47:19.636Z,8.52
2024-01-16T19:49:47.224Z,8.30
2024-01-16T19:52:14.130Z,8.32
2024-01-16T19:54:41.043Z,11.35
2024-01-16T19:57:08.143Z,9.93
2024-01-16T19:59:35.189Z,8.45
2024-01-16T20:02:02.069Z,11.85
2024-01-16T20:04:29.015Z,12.23
2024-01-16T20:06:56.111Z,12.00
2024-01-16T20:09:23.078Z,10.70
2024-01-16T20:11:50.062Z,12.23
2024-01-16T20:14:19.666Z,9.77
2024-01-16T20:16:46.519Z,12.07
2024-01-16T20:19:14.326Z,11.85
2024-01-16T20:21:42.258Z,10.77
2024-01-16T20:24:09.196Z,10.98
2024-01-16T20:26:37.623Z,11.35
2024-01-16T20:29:05.463Z,13.73
2024-01-16T20:31:33.200Z,10.43
2024-01-16T20:34:00.504Z,12.13
2024-01-16T20:36:27.504Z,14.18
2024-01-16T20:38:54.366Z,11.98
2024-01-16T20:41:21.300Z,13.25
2024-01-16T20:43:48.207Z,14.13
2024-01-16T20:46:16.151Z,12.95
2024-01-16T20:48:43.220Z,11.50
2024-01-16T20:51:14.872Z,13.25
2024-01-16T20:53:41.831Z,15.95
2024-01-16T20:56:08.966Z,13.23
2024-01-16T20:58:36.728Z,11.30
2024-01-16T21:01:03.654Z,13.55
2024-01-16T21:03:31.339Z,12.65
2024-01-16T21:05:59.366Z,15.70
2024-01-16T21:08:27.600Z,15.52
2024-01-16T21:10:54.692Z,13.88
2024-01-16T21:13:24.309Z,15.50
2024-01-16T21:15:51.168Z,11.45
2024-01-16T21:18:18.103Z,10.77
2024-01-16T21:20:45.349Z,24.20
2024-01-16T21:23:12.574Z,20.63
2024-01-16T21:25:39.411Z,19.67
2024-01-16T21:28:06.291Z,14.30
2024-01-16T21:30:33.163Z,20.20
2024-01-16T21:33:00.282Z,15.30
2024-01-16T21:35:27.255Z,14.98
2024-01-16T21:37:54.592Z,15.55
2024-01-16T21:40:21.415Z,16.65
2024-01-16T21:42:51.660Z,14.60
2024-01-16T21:45:18.664Z,20.67
2024-01-16T21:47:45.579Z,12.20
2024-01-16T21:50:13.518Z,14.55
2024-01-16T21:52:40.646Z,23.67
2024-01-16T21:55:07.725Z,21.30
2024-01-16T21:57:35.215Z,21.38
2024-01-16T22:00:05.775Z,17.90
2024-01-16T22:02:33.402Z,22.15
2024-01-16T22:05:00.541Z,15.48
2024-01-16T22:07:28.693Z,16.58
2024-01-16T22:09:55.568Z,17.05
2024-01-16T22:12:22.569Z,19.75
2024-01-16T22:14:54.595Z,17.50
2024-01-16T22:17:22.371Z,16.23
2024-01-16T22:19:49.694Z,21.20
2024-01-16T22:22:16.562Z,18.90
2024-01-16T22:24:43.437Z,19.50
2024-01-16T22:27:10.327Z,18.33
2024-01-16T22:29:37.369Z,19.88
2024-01-16T22:32:05.549Z,16.38
2024-01-16T22:34:32.585Z,17.33
2024-01-16T22:36:59.484Z,18.95
2024-01-16T22:39:28.690Z,20.80
2024-01-16T22:41:55.642Z,23.38
2024-01-16T22:44:27.250Z,23.20
2024-01-16T22:46:55.637Z,32.97
2024-01-16T22:49:23.487Z,29.25
2024-01-16T22:51:51.073Z,76.55
2024-01-16T22:54:18.464Z,69.30
2024-01-16T22:56:45.433Z,68.03
2024-01-16T22:59:12.299Z,63.60
2024-01-16T23:01:39.173Z,74.35
2024-01-16T23:04:06.391Z,70.97
2024-01-16T23:06:33.301Z,73.45
2024-01-16T23:09:03.062Z,61.10
2024-01-16T23:11:31.171Z,71.35
2024-01-16T23:13:58.059Z,64.40
2024-01-16T23:16:25.189Z,64.82
2024-01-16T23:18:52.098Z,60.63
2024-01-16T23:21:19.896Z,55.90
2024-01-16T23:23:46.939Z,51.83
2024-01-16T23:26:14.432Z,45.95
2024-01-16T23:28:42.246Z,49.15
2024-01-16T23:31:10.139Z,52.83
2024-01-16T23:33:37.142Z,38.97
2024-01-16T23:36:04.843Z,38.38
2024-01-16T23:38:31.900Z,35.33
2024-01-16T23:41:01.749Z,39.08
2024-01-16T23:43:34.447Z,38.75
2024-01-16T23:46:01.718Z,37.30
2024-01-16T23:48:28.871Z,42.85
2024-01-16T23:50:55.922Z,33.63
2024-01-16T23:53:23.050Z,35.72
2024-01-16T23:55:52.253Z,34.92
2024-01-16T23:58:19.203Z,38.53
